Time;durP1;ratioP1;P1;durP2;ratioP2;P2;SDS_P1;SDS_P2;PMS_P1;PMS_P2;Temp;Humidity;BMP_temperature;BMP_pressure;BME280_temperature;BME280_humidity;BME280_pressure;Samples;Min_cycle;Max_cycle;Signal;HPM_P1;HPM_P2
2022/06/17 00:00:17;;;;;;;14.07;8.70;;;10.80;99.90;;;;;;5115981;28;20062;-74
2022/06/17 00:02:43;;;;;;;11.52;8.10;;;10.70;99.90;;;;;;5116747;28;20036;-75
2022/06/17 00:05:09;;;;;;;16.17;9.52;;;10.70;99.90;;;;;;5116498;28;20035;-75
2022/06/17 00:07:35;;;;;;;11.40;8.55;;;10.60;99.90;;;;;;5103620;28;20044;-74
2022/06/17 00:10:01;;;;;;;11.82;9.13;;;10.60;99.90;;;;;;5096250;28;20111;-74
2022/06/17 00:12:27;;;;;;;15.70;10.35;;;10.60;99.90;;;;;;5095997;28;20086;-74
2022/06/17 00:17:36;;;;;;;15.13;9.88;;;10.50;99.90;;;;;;5107260;28;20052;-74
2022/06/17 00:20:07;;;;;;;10.70;8.27;;;10.70;99.90;;;;;;5115774;28;20048;-74
2022/06/17 00:22:32;;;;;;;12.93;9.25;;;10.50;99.90;;;;;;5116164;28;20521;-74
2022/06/17 00:24:58;;;;;;;13.30;8.38;;;10.50;99.90;;;;;;5101750;28;20119;-75
2022/06/17 00:27:24;;;;;;;14.68;8.73;;;10.40;99.90;;;;;;5095750;28;20062;-74
2022/06/17 00:29:49;;;;;;;16.77;10.82;;;10.40;99.90;;;;;;5095548;28;20040;-75
2022/06/17 00:32:15;;;;;;;15.27;9.82;;;10.40;99.90;;;;;;5095618;28;20052;-75
2022/06/17 00:34:40;;;;;;;18.15;10.68;;;10.50;99.90;;;;;;5095492;28;20044;-74
2022/06/17 00:37:12;;;;;;;15.63;10.48;;;10.50;99.90;;;;;;5105538;28;20098;-74
2022/06/17 00:39:38;;;;;;;14.63;10.35;;;10.50;99.90;;;;;;5115724;28;20502;-75
2022/06/17 00:42:10;;;;;;;16.85;11.15;;;10.50;99.90;;;;;;5115231;28;20047;-74
2022/06/17 00:44:57;;;;;;;17.17;10.43;;;10.50;99.90;;;;;;5115784;28;20075;-74
2022/06/17 00:47:44;;;;;;;14.95;10.27;;;10.40;99.90;;;;;;5115392;28;20463;-75
2022/06/17 00:50:52;;;;;;;14.18;9.77;;;10.40;99.90;;;;;;5114441;28;20080;-75
2022/06/17 00:53:20;;;;;;;;;;;10.40;99.90;;;;;;5053130;28;20051;-74
2022/06/17 00:55:53;;;;;;;18.63;11.27;;;10.50;99.90;;;;;;5050949;28;20318;-74
2022/06/17 00:58:23;;;;;;;16.30;12.05;;;10.40;99.90;;;;;;5067338;28;20085;-74
2022/06/17 01:00:53;;;;;;;16.00;11.70;;;10.50;99.90;;;;;;5094885;28;20031;-74
2022/06/17 01:03:24;;;;;;;18.92;11.88;;;10.40;99.90;;;;;;5095090;28;20056;-74
2022/06/17 01:06:08;;;;;;;17.60;11.27;;;10.40;99.90;;;;;;5096001;28;20047;-73
2022/06/17 01:11:30;;;;;;;18.20;11.77;;;11.20;99.90;;;;;;5095029;28;20051;-74
2022/06/17 01:13:56;;;;;;;19.17;10.57;;;10.40;99.90;;;;;;5095232;28;20040;-73
2022/06/17 01:16:31;;;;;;;15.50;9.95;;;10.40;99.90;;;;;;5103780;28;20439;-74
2022/06/17 01:19:01;;;;;;;16.83;10.60;;;10.40;99.90;;;;;;5115171;28;20032;-74
2022/06/17 01:21:38;;;;;;;20.08;11.05;;;10.70;99.90;;;;;;5114664;28;20066;-74
2022/06/17 01:24:07;;;;;;;15.82;10.70;;;10.40;99.90;;;;;;5115144;28;20036;-74
2022/06/17 01:26:33;;;;;;;15.45;10.48;;;10.40;99.90;;;;;;5101515;28;20052;-74
2022/06/17 01:28:58;;;;;;;17.85;10.75;;;10.40;99.90;;;;;;5093451;28;20052;-74
2022/06/17 01:31:24;;;;;;;15.40;10.93;;;10.40;99.90;;;;;;5094838;28;20043;-74
2022/06/17 01:33:50;;;;;;;18.83;11.27;;;10.30;99.90;;;;;;5094436;28;20143;-74
2022/06/17 01:36:25;;;;;;;15.02;10.63;;;10.30;99.90;;;;;;5104748;28;20042;-74
2022/06/17 01:38:52;;;;;;;17.55;10.43;;;10.30;99.90;;;;;;5114781;28;20092;-74
2022/06/17 01:41:23;;;;;;;14.38;9.73;;;10.60;99.90;;;;;;5114391;28;20100;-75
2022/06/17 01:43:53;;;;;;;13.90;9.77;;;10.30;99.90;;;;;;5114683;28;20044;-74
2022/06/17 01:46:41;;;;;;;15.27;9.55;;;10.30;99.90;;;;;;5100603;28;20058;-74
2022/06/17 01:49:17;;;;;;;18.55;9.90;;;10.30;99.90;;;;;;5094351;28;20044;-74
2022/06/17 01:51:56;;;;;;;13.75;10.18;;;10.30;99.90;;;;;;5102296;28;20039;-74
2022/06/17 01:54:27;;;;;;;16.13;10.25;;;10.40;99.90;;;;;;5114515;28;20516;-74
2022/06/17 01:56:57;;;;;;;14.52;8.48;;;10.40;99.90;;;;;;5214031;22;20045;-80
2022/06/17 01:59:31;;;;;;;16.30;10.43;;;10.40;99.90;;;;;;5090752;28;20041;-81
2022/06/17 02:02:00;;;;;;;17.95;10.73;;;10.50;99.90;;;;;;5067335;28;20067;-80
2022/06/17 02:04:34;;;;;;;16.10;10.35;;;10.50;99.90;;;;;;5065605;28;20049;-80
2022/06/17 02:07:23;;;;;;;16.55;11.52;;;10.60;99.90;;;;;;5081078;28;20040;-80
2022/06/17 02:09:49;;;;;;;18.15;9.60;;;10.60;99.90;;;;;;5083338;28;20044;-80
2022/06/17 02:12:17;;;;;;;18.02;9.25;;;10.60;99.90;;;;;;5081428;28;20044;-80
2022/06/17 02:14:44;;;;;;;13.48;9.43;;;10.60;99.90;;;;;;5081694;28;20044;-80
2022/06/17 02:17:10;;;;;;;16.60;9.55;;;10.90;99.90;;;;;;5082245;28;20052;-80
2022/06/17 02:19:39;;;;;;;14.90;9.60;;;11.20;99.90;;;;;;5081381;28;20080;-81
2022/06/17 02:22:09;;;;;;;15.43;9.02;;;10.60;99.90;;;;;;5082662;28;20102;-81
2022/06/17 02:24:37;;;;;;;15.68;9.77;;;10.60;99.90;;;;;;5082328;28;20039;-79
2022/06/17 02:27:07;;;;;;;12.77;9.88;;;10.60;99.90;;;;;;5082927;28;20078;-79
2022/06/17 02:29:35;;;;;;;16.20;9.73;;;10.60;99.90;;;;;;5081755;28;20036;-80
2022/06/17 02:32:04;;;;;;;16.42;10.00;;;10.60;99.90;;;;;;5081214;28;20037;-80
2022/06/17 02:34:30;;;;;;;15.13;10.13;;;10.60;99.90;;;;;;5080795;28;20040;-80
2022/06/17 02:37:10;;;;;;;14.32;9.23;;;10.60;99.90;;;;;;5082812;28;20040;-80
2022/06/17 02:39:41;;;;;;;12.60;9.18;;;10.50;99.90;;;;;;5081673;28;20048;-80
2022/06/17 02:42:20;;;;;;;12.77;8.57;;;10.50;99.90;;;;;;5082868;28;20102;-80
2022/06/17 02:44:48;;;;;;;14.55;8.55;;;10.40;99.90;;;;;;5082160;28;20040;-80
2022/06/17 02:47:14;;;;;;;14.65;8.73;;;10.30;99.90;;;;;;5082770;28;20102;-80
2022/06/17 02:49:42;;;;;;;14.95;9.55;;;10.20;99.90;;;;;;5082558;28;20049;-80
2022/06/17 02:52:15;;;;;;;17.63;8.38;;;10.10;99.90;;;;;;5082133;28;20048;-80
2022/06/17 02:54:44;;;;;;;14.73;8.55;;;10.10;99.90;;;;;;5082763;28;20072;-80
2022/06/17 02:57:19;;;;;;;16.85;9.60;;;10.00;99.90;;;;;;5089547;28;20052;-80
2022/06/17 02:59:50;;;;;;;12.63;8.60;;;10.00;99.90;;;;;;5102826;28;20482;-80
2022/06/17 03:02:30;;;;;;;12.82;8.30;;;10.00;99.90;;;;;;5102302;28;20381;-80
2022/06/17 03:04:58;;;;;;;13.18;8.95;;;10.00;99.90;;;;;;5100858;28;20040;-80
2022/06/17 03:07:28;;;;;;;14.85;7.93;;;9.90;99.90;;;;;;5086489;28;20040;-80
2022/06/17 03:09:53;;;;;;;16.27;8.07;;;9.90;99.90;;;;;;5084336;28;20048;-80
2022/06/17 03:12:23;;;;;;;13.20;8.73;;;9.90;99.90;;;;;;5101817;28;20036;-81
2022/06/17 03:15:05;;;;;;;13.65;7.47;;;9.90;99.90;;;;;;5102380;28;20040;-81
2022/06/17 03:17:34;;;;;;;12.93;7.82;;;9.90;99.90;;;;;;5103017;28;20062;-80
2022/06/17 03:20:02;;;;;;;11.13;7.82;;;9.90;99.90;;;;;;5103777;28;20079;-81
2022/06/17 03:22:29;;;;;;;13.73;8.57;;;10.00;99.90;;;;;;5106310;28;20044;-80
2022/06/17 03:25:04;;;;;;;16.17;8.50;;;10.10;99.90;;;;;;5105495;28;20040;-81
2022/06/17 03:27:50;;;;;;;12.50;8.15;;;10.20;99.90;;;;;;5106855;28;20096;-81
2022/06/17 03:30:30;;;;;;;14.47;8.47;;;10.30;99.90;;;;;;5106071;28;20044;-81
2022/06/17 03:33:22;;;;;;;12.20;8.25;;;10.50;99.90;;;;;;5104774;28;20048;-81
2022/06/17 03:35:52;;;;;;;17.45;8.07;;;10.80;99.90;;;;;;5068488;28;20056;-81
2022/06/17 03:38:20;;;;;;;12.70;7.95;;;11.00;99.90;;;;;;5106564;28;20089;-81
2022/06/17 03:40:51;;;;;;;11.93;7.07;;;11.20;99.90;;;;;;5105862;28;20082;-81
2022/06/17 03:43:19;;;;;;;10.82;6.25;;;11.60;99.90;;;;;;5105439;28;20105;-81
2022/06/17 03:46:01;;;;;;;10.23;6.25;;;11.50;99.90;;;;;;5105992;28;20383;-81
2022/06/17 03:48:30;;;;;;;9.13;5.38;;;11.60;99.90;;;;;;5103899;28;20047;-81
2022/06/17 03:50:55;;;;;;;9.30;5.38;;;11.80;99.90;;;;;;5106237;28;20063;-81
2022/06/17 03:53:26;;;;;;;11.95;5.30;;;11.90;99.90;;;;;;5106078;28;20040;-81
2022/06/17 03:55:54;;;;;;;13.10;5.78;;;12.00;99.90;;;;;;5106312;28;20048;-80
2022/06/17 03:58:21;;;;;;;7.80;4.43;;;12.00;99.90;;;;;;5105320;28;20414;-80
2022/06/17 04:00:55;;;;;;;12.23;4.57;;;12.10;99.90;;;;;;5105826;28;20039;-81
2022/06/17 04:03:25;;;;;;;7.68;4.65;;;12.10;99.90;;;;;;5104589;28;20066;-81
2022/06/17 04:06:14;;;;;;;7.68;4.28;;;12.40;99.90;;;;;;5104861;28;20059;-80
2022/06/17 04:08:58;;;;;;;9.50;4.15;;;12.30;99.90;;;;;;5104516;28;20048;-81
2022/06/17 04:11:37;;;;;;;11.15;4.53;;;12.40;99.90;;;;;;5104312;28;20067;-81
2022/06/17 04:14:06;;;;;;;16.20;4.90;;;12.60;99.90;;;;;;5086755;28;20070;-81
2022/06/17 04:16:39;;;;;;;10.57;4.88;;;13.20;99.90;;;;;;5104210;28;20048;-81
2022/06/17 04:19:18;;;;;;;12.40;4.28;;;12.90;99.90;;;;;;5104515;28;20504;-81
2022/06/17 04:21:44;;;;;;;9.02;4.47;;;13.20;99.90;;;;;;5104686;28;20406;-81
2022/06/17 04:24:17;;;;;;;8.45;4.95;;;13.50;99.90;;;;;;5103106;28;20460;-81
2022/06/17 04:26:45;;;;;;;8.93;4.05;;;13.60;99.90;;;;;;5103008;28;20572;-81
2022/06/17 04:29:19;;;;;;;8.65;4.30;;;13.90;99.90;;;;;;5104071;28;20051;-81
2022/06/17 04:31:51;;;;;;;10.77;5.38;;;14.40;99.90;;;;;;5104331;28;20036;-80
2022/06/17 04:34:18;;;;;;;10.55;4.72;;;14.20;99.90;;;;;;5105304;28;20036;-81
2022/06/17 04:36:51;;;;;;;11.55;4.03;;;14.30;99.90;;;;;;5105193;28;20080;-81
2022/06/17 04:39:35;;;;;;;9.73;4.03;;;14.40;99.90;;;;;;5106622;28;20054;-81
2022/06/17 04:42:05;;;;;;;7.22;3.75;;;14.60;99.90;;;;;;5096096;28;20044;-81
2022/06/17 04:44:31;;;;;;;11.30;4.03;;;14.80;99.90;;;;;;5106198;28;20074;-81
2022/06/17 04:47:04;;;;;;;7.22;4.03;;;14.90;99.90;;;;;;5105985;28;20047;-81
2022/06/17 04:49:33;;;;;;;9.27;4.15;;;15.00;99.90;;;;;;5098138;28;20041;-81
2022/06/17 04:52:03;;;;;;;9.98;4.70;;;15.10;99.90;;;;;;5082707;28;20137;-81
2022/06/17 04:54:30;;;;;;;8.45;4.43;;;15.20;99.90;;;;;;5081333;28;20558;-81
2022/06/17 04:56:58;;;;;;;6.28;3.83;;;15.60;99.90;;;;;;5063637;28;20087;-81
2022/06/17 04:59:34;;;;;;;10.75;4.82;;;15.40;99.90;;;;;;5084067;28;20109;-81
2022/06/17 05:02:03;;;;;;;7.80;4.13;;;15.50;99.90;;;;;;5101945;28;20554;-81
2022/06/17 05:04:29;;;;;;;12.77;5.22;;;15.40;99.90;;;;;;5102419;28;20066;-81
2022/06/17 05:06:57;;;;;;;8.43;4.70;;;15.40;99.90;;;;;;5102502;28;20401;-81
2022/06/17 05:09:30;;;;;;;12.98;5.20;;;15.30;99.90;;;;;;5099510;28;20104;-81
2022/06/17 05:12:11;;;;;;;8.57;4.80;;;15.30;99.90;;;;;;5099701;28;20055;-80
2022/06/17 05:15:01;;;;;;;8.10;4.82;;;15.40;99.90;;;;;;5101148;28;20174;-80
2022/06/17 05:17:27;;;;;;;8.57;5.32;;;15.40;99.90;;;;;;5074943;28;20052;-81
2022/06/17 05:19:53;;;;;;;9.57;5.35;;;15.40;99.90;;;;;;5086396;28;20075;-81
2022/06/17 05:22:26;;;;;;;7.75;5.10;;;15.50;99.90;;;;;;5072717;28;20163;-81
2022/06/17 05:24:53;;;;;;;9.52;4.97;;;15.60;99.90;;;;;;5072546;28;20075;-81
2022/06/17 05:27:18;;;;;;;9.93;5.20;;;15.60;99.90;;;;;;5073023;28;20041;-81
2022/06/17 05:29:44;;;;;;;7.80;4.93;;;16.00;99.90;;;;;;5074193;28;20042;-81
2022/06/17 05:32:16;;;;;;;12.38;4.78;;;15.70;99.90;;;;;;5075668;28;20089;-81
2022/06/17 05:34:42;;;;;;;6.70;4.97;;;15.80;99.90;;;;;;5072238;28;20055;-81
2022/06/17 05:37:08;;;;;;;9.77;4.80;;;15.80;99.90;;;;;;5071419;28;20171;-81
2022/06/17 05:39:33;;;;;;;10.10;4.63;;;15.80;99.90;;;;;;5072357;28;20079;-81
2022/06/17 05:41:59;;;;;;;7.60;4.63;;;15.80;99.90;;;;;;5072879;28;20121;-81
2022/06/17 05:44:25;;;;;;;9.10;5.55;;;15.90;99.90;;;;;;5072061;28;20056;-81
2022/06/17 05:46:50;;;;;;;11.25;5.57;;;16.00;99.90;;;;;;5072530;28;20045;-81
2022/06/17 05:49:16;;;;;;;9.25;5.50;;;16.10;99.90;;;;;;5072516;28;20078;-81
2022/06/17 05:51:42;;;;;;;12.05;5.78;;;16.50;99.90;;;;;;5072434;28;20119;-81
2022/06/17 05:54:07;;;;;;;13.50;5.45;;;16.20;99.90;;;;;;5074809;28;20087;-81
2022/06/17 05:56:33;;;;;;;9.48;5.43;;;16.30;99.90;;;;;;5070248;28;20053;-81
2022/06/17 05:58:59;;;;;;;9.00;4.90;;;16.60;99.90;;;;;;5070756;28;20410;-81
2022/06/17 06:01:24;;;;;;;7.72;5.35;;;16.40;99.90;;;;;;5072324;28;20079;-81
2022/06/17 06:03:50;;;;;;;12.27;6.20;;;16.70;99.90;;;;;;5072219;28;20052;-81
2022/06/17 06:06:15;;;;;;;15.57;5.63;;;16.60;99.90;;;;;;5071786;28;20431;-81
2022/06/17 06:08:41;;;;;;;9.55;5.78;;;16.70;99.90;;;;;;5071652;28;20504;-81
2022/06/17 06:11:07;;;;;;;8.88;5.35;;;16.90;99.90;;;;;;5071141;28;20494;-81
2022/06/17 06:13:33;;;;;;;11.57;5.90;;;17.00;99.90;;;;;;5071725;28;20040;-81
2022/06/17 06:16:00;;;;;;;8.30;5.32;;;17.10;99.90;;;;;;5072873;28;20505;-81
2022/06/17 06:18:30;;;;;;;15.57;6.10;;;17.20;99.90;;;;;;5071415;28;20360;-81
2022/06/17 06:20:56;;;;;;;9.52;6.22;;;17.30;99.90;;;;;;5071616;28;20044;-81
2022/06/17 06:23:21;;;;;;;9.75;4.78;;;17.40;99.90;;;;;;5069913;28;20044;-81
2022/06/17 06:25:47;;;;;;;16.65;5.75;;;17.50;99.90;;;;;;5081130;28;20044;-81
2022/06/17 06:28:17;;;;;;;10.18;5.68;;;17.50;99.90;;;;;;5079597;28;20039;-81
2022/06/17 06:31:09;;;;;;;10.98;5.78;;;17.50;99.90;;;;;;5082543;28;20047;-81
2022/06/17 06:33:35;;;;;;;11.85;6.03;;;17.70;99.90;;;;;;5084145;28;20502;-81
2022/06/17 06:36:01;;;;;;;12.55;6.63;;;17.60;99.90;;;;;;5091930;28;20114;-81
2022/06/17 06:38:26;;;;;;;7.93;5.68;;;18.20;99.90;;;;;;5082137;28;20032;-81
2022/06/17 06:40:52;;;;;;;8.45;5.38;;;17.60;99.90;;;;;;5078132;28;20119;-81
2022/06/17 06:43:21;;;;;;;9.65;5.82;;;18.10;99.90;;;;;;5084283;28;20036;-81
2022/06/17 06:45:51;;;;;;;11.35;7.53;;;17.90;99.90;;;;;;5073417;28;20053;-81
2022/06/17 06:48:20;;;;;;;11.65;5.75;;;18.00;99.90;;;;;;5072637;28;20032;-81
2022/06/17 06:50:46;;;;;;;9.35;5.72;;;18.30;99.90;;;;;;5072406;28;20052;-81
2022/06/17 06:53:12;;;;;;;10.63;6.63;;;18.40;99.90;;;;;;5054357;28;20044;-81
2022/06/17 06:55:39;;;;;;;8.20;5.75;;;18.70;99.90;;;;;;5076603;28;20100;-82
2022/06/17 06:58:24;;;;;;;9.23;5.28;;;19.10;99.90;;;;;;5075959;28;20585;-82
2022/06/17 07:00:56;;;;;;;9.80;5.78;;;19.40;94.70;;;;;;5074905;28;20044;-83
2022/06/17 07:03:22;;;;;;;14.63;5.22;;;20.20;95.70;;;;;;5075350;28;20146;-83
2022/06/17 07:05:50;;;;;;;8.73;4.60;;;20.50;88.50;;;;;;5076317;28;20098;-82
2022/06/17 07:08:18;;;;;;;12.75;5.60;;;20.20;76.00;;;;;;5076605;28;20108;-82
2022/06/17 07:10:46;;;;;;;7.55;4.88;;;20.80;67.70;;;;;;5075550;28;20047;-83
2022/06/17 07:13:12;;;;;;;9.13;4.60;;;20.70;58.70;;;;;;5075583;28;20039;-82
2022/06/17 07:15:40;;;;;;;12.18;5.30;;;20.80;59.00;;;;;;5075754;28;20144;-82
2022/06/17 07:18:16;;;;;;;10.70;4.65;;;21.00;55.70;;;;;;5075937;28;20067;-83
2022/06/17 07:20:45;;;;;;;8.52;4.68;;;21.20;51.50;;;;;;5075699;28;20052;-83
2022/06/17 07:23:14;;;;;;;9.18;5.40;;;21.70;41.90;;;;;;5075865;28;20547;-83
2022/06/17 07:25:41;;;;;;;9.95;4.95;;;21.70;41.40;;;;;;5057741;28;20498;-83
2022/06/17 07:28:07;;;;;;;14.73;5.22;;;21.80;40.20;;;;;;5075949;28;20241;-82
2022/06/17 07:30:34;;;;;;;9.57;4.80;;;21.80;33.70;;;;;;5073945;28;20049;-83
2022/06/17 07:33:00;;;;;;;8.43;5.03;;;21.60;36.60;;;;;;5073980;28;20533;-83
2022/06/17 07:35:25;;;;;;;6.85;4.65;;;21.70;40.30;;;;;;5074565;28;20051;-83
2022/06/17 07:40:36;;;;;;;9.75;4.65;;;21.90;38.60;;;;;;5074547;28;20052;-83
2022/06/17 07:43:02;;;;;;;8.55;4.90;;;21.60;32.70;;;;;;5075655;28;20040;-81
2022/06/17 07:45:30;;;;;;;8.93;5.30;;;21.70;32.10;;;;;;5081272;28;20048;-83
2022/06/17 07:47:57;;;;;;;9.27;4.80;;;21.90;30.20;;;;;;5084279;28;20493;-82
2022/06/17 07:50:28;;;;;;;8.32;6.10;;;22.20;27.90;;;;;;5083802;28;20040;-83
2022/06/17 07:52:53;;;;;;;10.32;4.70;;;22.70;23.30;;;;;;5083107;28;20044;-83
2022/06/17 07:55:19;;;;;;;8.88;4.65;;;23.10;22.00;;;;;;5082123;28;20077;-83
2022/06/17 07:57:45;;;;;;;11.77;5.05;;;23.60;17.50;;;;;;5079782;28;20045;-83
2022/06/17 08:00:34;;;;;;;9.30;4.53;;;24.20;8.50;;;;;;5072770;28;20036;-83
2022/06/17 08:03:01;;;;;;;6.85;4.28;;;24.80;4.20;;;;;;5074271;28;20062;-83
2022/06/17 08:05:27;;;;;;;9.30;4.25;;;24.90;1.00;;;;;;5072190;28;20048;-83
2022/06/17 08:07:54;;;;;;;7.13;4.13;;;25.60;1.00;;;;;;5085078;28;20093;-83
2022/06/17 08:10:26;;;;;;;8.23;4.13;;;25.00;1.00;;;;;;5080112;28;20043;-83
2022/06/17 08:12:52;;;;;;;5.88;3.88;;;25.00;1.00;;;;;;5081970;28;20166;-83
2022/06/17 08:15:18;;;;;;;6.72;3.72;;;25.00;1.00;;;;;;5083361;28;20123;-83
2022/06/17 08:17:50;;;;;;;8.23;4.07;;;25.00;1.00;;;;;;5081828;28;20048;-82
2022/06/17 08:20:25;;;;;;;9.75;3.72;;;25.00;1.00;;;;;;5081983;28;20101;-83
2022/06/17 08:22:52;;;;;;;6.05;3.22;;;25.00;1.00;;;;;;5074526;28;20123;-83
2022/06/17 08:25:18;;;;;;;8.90;3.70;;;24.80;1.00;;;;;;5075158;28;20048;-83
2022/06/17 08:27:55;;;;;;;9.85;3.75;;;24.60;1.00;;;;;;5075153;28;20051;-83
2022/06/17 08:30:26;;;;;;;5.65;3.72;;;24.60;1.00;;;;;;5075352;28;20513;-83
2022/06/17 08:32:55;;;;;;;4.80;2.92;;;24.50;1.00;;;;;;5074999;28;20040;-83
2022/06/17 08:35:50;;;;;;;9.85;3.88;;;25.00;1.00;;;;;;5074956;28;20040;-83
2022/06/17 08:38:28;;;;;;;7.63;3.67;;;26.40;1.00;;;;;;5074005;28;20095;-83
2022/06/17 08:40:53;;;;;;;6.82;3.90;;;26.80;1.00;;;;;;5058400;28;20060;-83
2022/06/17 08:43:33;;;;;;;9.30;3.75;;;27.60;1.00;;;;;;5075243;28;20410;-83
2022/06/17 08:46:37;;;;;;;7.72;3.30;;;28.10;1.00;;;;;;5074160;28;21045;-83
2022/06/17 08:49:27;;;;;;;11.48;3.20;;;28.00;1.00;;;;;;5075808;28;20052;-81
2022/06/17 08:52:04;;;;;;;7.82;4.35;;;28.00;1.00;;;;;;5058962;28;20053;-84
2022/06/17 08:54:59;;;;;;;9.55;4.40;;;27.80;1.00;;;;;;5075858;28;20186;-84
2022/06/17 08:58:05;;;;;;;10.07;5.05;;;27.50;1.00;;;;;;5067145;28;20049;-84
2022/06/17 09:01:03;;;;;;;11.55;6.60;;;27.00;1.00;;;;;;5014141;28;20513;-84
2022/06/17 09:03:38;;;;;;;9.18;5.38;;;26.70;1.00;;;;;;5077498;28;20520;-83
2022/06/17 09:06:06;;;;;;;9.27;3.65;;;26.50;1.00;;;;;;5075456;28;20048;-83
2022/06/17 09:09:01;;;;;;;8.13;3.88;;;26.20;1.00;;;;;;5076189;28;20086;-83
2022/06/17 09:11:44;;;;;;;10.75;3.67;;;25.90;1.00;;;;;;5076150;28;20043;-83
2022/06/17 09:14:33;;;;;;;10.75;3.67;;;25.90;1.00;;;;;;5074681;28;20094;-83
2022/06/17 09:17:08;;;;;;;6.15;3.50;;;26.00;1.00;;;;;;5075554;28;20128;-83
2022/06/17 09:19:40;;;;;;;8.73;3.97;;;26.00;1.00;;;;;;5076757;28;20094;-83
2022/06/17 09:22:16;;;;;;;8.13;3.72;;;26.00;1.00;;;;;;5079105;28;20079;-83
2022/06/17 09:24:44;;;;;;;7.97;3.97;;;26.40;1.00;;;;;;5077641;28;20054;-83
2022/06/17 09:27:25;;;;;;;8.52;4.05;;;26.20;1.00;;;;;;5077706;28;20093;-83
2022/06/17 09:29:56;;;;;;;7.60;3.88;;;26.00;1.00;;;;;;5059350;28;20091;-84
2022/06/17 09:32:37;;;;;;;8.38;3.85;;;26.20;1.00;;;;;;5078377;28;20048;-83
2022/06/17 09:35:16;;;;;;;9.13;4.05;;;26.20;1.00;;;;;;5058817;28;20423;-84
2022/06/17 09:37:51;;;;;;;9.43;5.15;;;26.10;1.00;;;;;;5078118;28;20082;-83
2022/06/17 09:40:29;;;;;;;8.65;4.40;;;26.20;1.00;;;;;;5077937;28;20051;-84
2022/06/17 09:43:02;;;;;;;9.30;4.43;;;26.20;1.00;;;;;;5078608;28;20044;-84
2022/06/17 09:45:40;;;;;;;7.40;3.60;;;26.30;1.00;;;;;;5075567;28;20056;-83
2022/06/17 09:48:35;;;;;;;12.25;5.38;;;26.40;1.00;;;;;;5074520;28;20439;-84
2022/06/17 09:51:28;;;;;;;12.23;3.83;;;26.50;1.00;;;;;;5072872;28;20056;-87
2022/06/17 09:54:00;;;;;;;7.28;4.05;;;26.80;1.00;;;;;;5071011;28;20040;-83
2022/06/17 09:56:31;;;;;;;8.10;3.83;;;27.20;1.00;;;;;;5072678;28;20037;-83
2022/06/17 09:59:12;;;;;;;15.00;4.95;;;27.70;1.00;;;;;;5074043;28;20080;-83
2022/06/17 10:01:40;;;;;;;10.85;4.38;;;28.10;1.00;;;;;;5072859;28;20095;-82
2022/06/17 10:04:11;;;;;;;10.55;4.28;;;28.10;1.00;;;;;;5072037;28;20044;-83
2022/06/17 10:07:08;;;;;;;8.68;3.83;;;28.00;1.00;;;;;;5072257;28;20036;-84
2022/06/17 10:09:54;;;;;;;12.25;4.40;;;28.20;1.00;;;;;;5075866;28;20056;-82
2022/06/17 10:12:28;;;;;;;8.27;3.05;;;28.00;1.00;;;;;;5075719;28;20036;-83
2022/06/17 10:15:19;;;;;;;8.38;3.65;;;27.60;1.00;;;;;;5074727;28;20574;-82
2022/06/17 10:18:31;;;;;;;10.13;3.78;;;27.40;1.00;;;;;;5077619;28;20076;-82
2022/06/17 10:21:27;;;;;;;7.15;2.97;;;26.90;1.00;;;;;;5077820;28;20048;-82
2022/06/17 10:24:06;;;;;;;9.40;2.67;;;27.00;1.00;;;;;;5076601;28;20045;-82
2022/06/17 10:27:11;;;;;;;7.78;3.50;;;27.00;1.00;;;;;;5077565;28;20044;-83
2022/06/17 10:30:04;;;;;;;9.80;3.55;;;26.90;1.00;;;;;;5079484;28;20078;-83
2022/06/17 10:32:33;;;;;;;10.15;3.25;;;26.70;1.00;;;;;;5078105;28;20044;-83
2022/06/17 10:35:01;;;;;;;7.15;2.80;;;26.40;1.00;;;;;;5078494;28;20048;-83
2022/06/17 10:37:30;;;;;;;7.72;3.22;;;26.40;1.00;;;;;;5078986;28;20041;-83
2022/06/17 10:39:57;;;;;;;7.40;3.50;;;26.50;1.00;;;;;;5077495;28;20112;-83
2022/06/17 10:42:25;;;;;;;6.43;3.00;;;26.10;1.00;;;;;;5077110;28;20048;-83
2022/06/17 10:44:56;;;;;;;8.07;3.50;;;26.10;1.00;;;;;;5077546;28;20050;-82
2022/06/17 10:47:40;;;;;;;5.90;3.08;;;26.20;1.00;;;;;;5080359;28;20049;-83
2022/06/17 10:50:27;;;;;;;7.85;3.25;;;26.40;1.00;;;;;;5082401;28;20044;-82
2022/06/17 10:53:00;;;;;;;6.90;3.15;;;26.80;1.00;;;;;;5080163;28;20033;-83
2022/06/17 10:55:47;;;;;;;7.60;3.05;;;27.40;1.00;;;;;;5082958;28;20458;-83
2022/06/17 10:58:27;;;;;;;7.80;4.15;;;27.40;1.00;;;;;;5082748;28;20099;-83
2022/06/17 11:00:58;;;;;;;5.28;2.75;;;27.70;1.00;;;;;;5081652;28;20079;-83
2022/06/17 11:03:25;;;;;;;11.38;3.70;;;28.10;1.00;;;;;;5079961;28;20045;-83
2022/06/17 11:05:56;;;;;;;12.60;4.03;;;28.00;1.00;;;;;;5082618;28;20044;-85
2022/06/17 11:08:26;;;;;;;6.35;2.85;;;28.20;1.00;;;;;;5079977;28;20586;-85
2022/06/17 11:12:02;;;;;;;7.45;3.35;;;28.50;1.00;;;;;;5079579;28;20074;-86
2022/06/17 11:13:46;;;;;;;7.28;3.70;;;28.80;1.00;;;;;;5083380;28;20108;-85
2022/06/17 11:16:16;;;;;;;6.30;3.17;;;28.80;1.00;;;;;;5084123;28;20041;-88
2022/06/17 11:18:45;;;;;;;8.32;3.95;;;28.80;1.00;;;;;;5084303;28;20037;-86
2022/06/17 11:21:25;;;;;;;10.00;3.90;;;28.50;1.00;;;;;;5083999;28;20490;-86
2022/06/17 11:23:53;;;;;;;11.25;3.55;;;28.30;1.00;;;;;;5083330;28;20166;-85
2022/06/17 11:26:30;;;;;;;5.05;3.38;;;28.40;1.00;;;;;;5077331;28;20045;-86
2022/06/17 11:29:03;;;;;;;7.20;2.83;;;28.50;1.00;;;;;;5076050;28;20052;-86
2022/06/17 11:31:34;;;;;;;7.88;3.40;;;28.60;1.00;;;;;;5077882;28;20047;-86
2022/06/17 11:34:17;;;;;;;13.30;3.38;;;28.60;1.00;;;;;;5076958;28;20080;-86
2022/06/17 11:37:17;;;;;;;6.75;3.13;;;29.00;1.00;;;;;;5077851;28;20455;-86
2022/06/17 11:39:43;;;;;;;7.57;3.45;;;28.90;1.00;;;;;;5057105;28;20064;-86
2022/06/17 11:42:24;;;;;;;11.15;3.88;;;28.80;1.00;;;;;;5080497;28;20044;-85
2022/06/17 11:44:57;;;;;;;16.88;4.55;;;29.00;1.00;;;;;;5080853;28;20094;-85
2022/06/17 11:47:25;;;;;;;8.20;2.95;;;29.00;1.00;;;;;;5080950;28;20036;-85
2022/06/17 11:49:53;;;;;;;6.88;2.90;;;29.00;1.00;;;;;;5081658;28;20154;-85
2022/06/17 11:52:28;;;;;;;8.73;2.92;;;28.90;1.00;;;;;;5080943;28;20091;-86
2022/06/17 11:54:55;;;;;;;7.00;2.80;;;29.40;1.00;;;;;;5091254;28;20047;-85
2022/06/17 11:57:36;;;;;;;6.75;2.58;;;30.00;1.00;;;;;;5100719;28;20052;-84
2022/06/17 12:00:20;;;;;;;6.05;2.40;;;31.20;1.00;;;;;;5081265;28;20059;-85
2022/06/17 12:02:54;;;;;;;8.57;3.63;;;32.10;1.00;;;;;;5097929;28;20071;-85
2022/06/17 12:05:27;;;;;;;7.55;3.40;;;33.10;1.00;;;;;;5098574;28;20132;-86
2022/06/17 12:08:00;;;;;;;4.90;2.67;;;33.00;1.00;;;;;;5098828;28;20456;-85
2022/06/17 12:10:49;;;;;;;10.02;3.05;;;32.00;1.00;;;;;;5099661;28;20436;-86
2022/06/17 12:13:33;;;;;;;7.30;3.60;;;31.20;1.00;;;;;;5098855;28;20090;-86
2022/06/17 12:16:24;;;;;;;6.63;3.28;;;30.90;1.00;;;;;;5100874;28;20044;-85
2022/06/17 12:18:56;;;;;;;7.50;3.72;;;30.50;1.00;;;;;;5099485;28;20051;-86
2022/06/17 12:21:45;;;;;;;9.05;3.30;;;30.80;1.00;;;;;;5099010;28;20040;-86
2022/06/17 12:24:17;;;;;;;6.50;3.25;;;31.00;1.00;;;;;;5097830;28;20104;-86
2022/06/17 12:27:05;;;;;;;6.88;2.72;;;31.00;1.00;;;;;;5098107;28;20058;-87
2022/06/17 12:29:30;;;;;;;7.28;3.03;;;30.90;1.00;;;;;;5096679;28;20048;-86
2022/06/17 12:32:15;;;;;;;5.82;2.97;;;31.00;1.00;;;;;;5096182;28;20124;-87
2022/06/17 12:35:05;;;;;;;7.82;2.88;;;31.20;1.00;;;;;;5097073;28;20077;-87
2022/06/17 12:37:59;;;;;;;8.50;2.70;;;31.40;1.00;;;;;;5097042;28;20040;-87
2022/06/17 12:40:49;;;;;;;5.72;2.72;;;31.40;1.00;;;;;;5097002;28;20044;-87
2022/06/17 12:43:37;;;;;;;7.53;2.97;;;31.60;1.00;;;;;;5097533;28;20051;-87
2022/06/17 12:46:17;;;;;;;9.23;2.50;;;31.70;1.00;;;;;;5095858;28;20516;-87
2022/06/17 12:55:14;;;;;;;8.50;2.83;;;32.20;1.00;;;;;;5095683;28;20060;-86
2022/06/17 12:58:06;;;;;;;8.13;2.50;;;32.70;1.00;;;;;;5095262;28;20051;-86
2022/06/17 13:00:49;;;;;;;6.00;2.42;;;32.80;1.00;;;;;;5095587;28;20047;-86
2022/06/17 13:03:35;;;;;;;7.38;2.75;;;32.50;1.00;;;;;;5095702;28;20467;-88
2022/06/17 13:06:19;;;;;;;5.55;2.63;;;32.70;1.00;;;;;;5095727;28;20506;-87
2022/06/17 13:09:09;;;;;;;5.72;2.67;;;32.60;1.00;;;;;;5094737;28;20444;-87
2022/06/17 13:11:46;;;;;;;6.32;2.58;;;32.40;1.00;;;;;;5095906;28;20044;-86
2022/06/17 13:14:25;;;;;;;5.93;1.98;;;32.20;1.00;;;;;;5093846;28;20048;-86
2022/06/17 13:17:26;;;;;;;5.03;2.17;;;32.60;1.00;;;;;;5095451;28;20048;-86
2022/06/17 13:20:06;;;;;;;5.30;2.97;;;33.10;1.00;;;;;;5052302;28;20410;-85
2022/06/17 13:22:42;;;;;;;10.77;3.95;;;32.90;1.00;;;;;;5095022;28;20508;-86
2022/06/17 13:25:23;;;;;;;7.55;2.83;;;32.30;1.00;;;;;;5095498;28;20482;-86
2022/06/17 13:28:16;;;;;;;9.18;3.20;;;31.80;1.00;;;;;;5095489;28;20040;-86
2022/06/17 13:30:48;;;;;;;4.68;2.13;;;31.30;1.00;;;;;;5095215;28;20044;-87
2022/06/17 13:33:25;;;;;;;5.93;2.80;;;31.10;1.00;;;;;;5094463;28;20099;-85